sensor_id;sensor_type;location;lat;lon;timestamp;P1;durP1;ratioP1;P2;durP2;ratioP2
4011;SDS011;2020;48.682;9.024;2022-12-07T00:00:55;8.40;;;7.50;;
4011;SDS011;2020;48.682;9.024;2022-12-07T00:03:29;8.43;;;6.40;;
4011;SDS011;2020;48.682;9.024;2022-12-07T00:05:57;7.97;;;7.00;;
4011;SDS011;2020;48.682;9.024;2022-12-07T00:08:22;7.83;;;6.37;;
4011;SDS011;2020;48.682;9.024;2022-12-07T00:10:48;14.00;;;6.77;;
4011;SDS011;2020;48.682;9.024;2022-12-07T00:13:13;8.50;;;6.90;;
4011;SDS011;2020;48.682;9.024;2022-12-07T00:15:38;8.40;;;6.10;;
4011;SDS011;2020;48.682;9.024;2022-12-07T00:18:03;7.53;;;6.83;;
4011;SDS011;2020;48.682;9.024;2022-12-07T00:20:29;7.90;;;6.30;;
4011;SDS011;2020;48.682;9.024;2022-12-07T00:22:55;7.53;;;6.60;;
4011;SDS011;2020;48.682;9.024;2022-12-07T00:25:20;7.33;;;6.50;;
4011;SDS011;2020;48.682;9.024;2022-12-07T00:27:45;7.23;;;6.07;;
4011;SDS011;2020;48.682;9.024;2022-12-07T00:30:11;7.07;;;6.37;;
4011;SDS011;2020;48.682;9.024;2022-12-07T00:32:36;7.90;;;7.10;;
4011;SDS011;2020;48.682;9.024;2022-12-07T00:35:01;8.60;;;7.03;;
4011;SDS011;2020;48.682;9.024;2022-12-07T00:37:27;7.70;;;6.83;;
4011;SDS011;2020;48.682;9.024;2022-12-07T00:39:52;8.60;;;7.23;;
4011;SDS011;2020;48.682;9.024;2022-12-07T00:42:17;10.93;;;7.23;;
4011;SDS011;2020;48.682;9.024;2022-12-07T00:44:42;11.47;;;7.60;;
4011;SDS011;2020;48.682;9.024;2022-12-07T00:47:08;7.50;;;6.80;;
4011;SDS011;2020;48.682;9.024;2022-12-07T00:49:33;8.83;;;7.47;;
4011;SDS011;2020;48.682;9.024;2022-12-07T00:51:58;9.50;;;8.23;;
4011;SDS011;2020;48.682;9.024;2022-12-07T00:54:23;11.10;;;7.30;;
4011;SDS011;2020;48.682;9.024;2022-12-07T00:56:48;9.07;;;8.17;;
4011;SDS011;2020;48.682;9.024;2022-12-07T00:59:14;11.13;;;7.33;;
4011;SDS011;2020;48.682;9.024;2022-12-07T01:01:40;9.57;;;8.57;;
4011;SDS011;2020;48.682;9.024;2022-12-07T01:04:05;9.93;;;8.97;;
4011;SDS011;2020;48.682;9.024;2022-12-07T01:06:31;10.20;;;8.13;;
4011;SDS011;2020;48.682;9.024;2022-12-07T01:08:56;9.27;;;8.37;;
4011;SDS011;2020;48.682;9.024;2022-12-07T01:11:23;11.73;;;7.47;;
4011;SDS011;2020;48.682;9.024;2022-12-07T01:13:50;10.60;;;8.80;;
4011;SDS011;2020;48.682;9.024;2022-12-07T01:16:17;10.13;;;7.77;;
4011;SDS011;2020;48.682;9.024;2022-12-07T01:18:45;10.57;;;7.60;;
4011;SDS011;2020;48.682;9.024;2022-12-07T01:21:13;10.13;;;8.97;;
4011;SDS011;2020;48.682;9.024;2022-12-07T01:23:41;14.20;;;9.97;;
4011;SDS011;2020;48.682;9.024;2022-12-07T01:26:09;13.17;;;8.80;;
4011;SDS011;2020;48.682;9.024;2022-12-07T01:28:36;9.50;;;8.50;;
4011;SDS011;2020;48.682;9.024;2022-12-07T01:31:03;10.73;;;9.63;;
4011;SDS011;2020;48.682;9.024;2022-12-07T01:33:34;10.50;;;9.40;;
4011;SDS011;2020;48.682;9.024;2022-12-07T01:36:04;10.40;;;9.23;;
4011;SDS011;2020;48.682;9.024;2022-12-07T01:38:48;8.60;;;7.70;;
4011;SDS011;2020;48.682;9.024;2022-12-07T01:41:19;9.60;;;8.60;;
4011;SDS011;2020;48.682;9.024;2022-12-07T01:46:32;9.53;;;8.63;;
4011;SDS011;2020;48.682;9.024;2022-12-07T01:48:57;8.77;;;8.03;;
4011;SDS011;2020;48.682;9.024;2022-12-07T01:51:23;8.63;;;7.70;;
4011;SDS011;2020;48.682;9.024;2022-12-07T01:53:48;9.60;;;8.40;;
4011;SDS011;2020;48.682;9.024;2022-12-07T01:56:15;10.00;;;8.43;;
4011;SDS011;2020;48.682;9.024;2022-12-07T01:58:45;10.67;;;8.80;;
4011;SDS011;2020;48.682;9.024;2022-12-07T02:01:10;10.80;;;8.87;;
4011;SDS011;2020;48.682;9.024;2022-12-07T02:03:40;10.30;;;8.07;;
4011;SDS011;2020;48.682;9.024;2022-12-07T02:06:07;11.63;;;7.37;;
4011;SDS011;2020;48.682;9.024;2022-12-07T02:08:35;9.17;;;8.17;;
4011;SDS011;2020;48.682;9.024;2022-12-07T02:11:01;8.47;;;7.67;;
4011;SDS011;2020;48.682;9.024;2022-12-07T02:13:29;10.20;;;7.87;;
4011;SDS011;2020;48.682;9.024;2022-12-07T02:24:13;8.33;;;7.43;;
4011;SDS011;2020;48.682;9.024;2022-12-07T02:29:13;7.83;;;7.13;;
4011;SDS011;2020;48.682;9.024;2022-12-07T02:31:53;7.77;;;7.17;;
4011;SDS011;2020;48.682;9.024;2022-12-07T02:34:28;8.60;;;7.03;;
4011;SDS011;2020;48.682;9.024;2022-12-07T02:37:03;10.77;;;8.70;;
4011;SDS011;2020;48.682;9.024;2022-12-07T02:39:44;10.10;;;8.50;;
4011;SDS011;2020;48.682;9.024;2022-12-07T02:42:17;10.70;;;8.70;;
4011;SDS011;2020;48.682;9.024;2022-12-07T02:44:47;10.47;;;8.60;;
4011;SDS011;2020;48.682;9.024;2022-12-07T02:47:14;7.90;;;7.17;;
4011;SDS011;2020;48.682;9.024;2022-12-07T02:49:42;9.20;;;7.07;;
4011;SDS011;2020;48.682;9.024;2022-12-07T02:52:08;10.37;;;7.53;;
4011;SDS011;2020;48.682;9.024;2022-12-07T02:54:34;6.90;;;6.30;;
4011;SDS011;2020;48.682;9.024;2022-12-07T03:13:07;7.47;;;6.73;;
4011;SDS011;2020;48.682;9.024;2022-12-07T03:18:08;9.80;;;8.10;;
4011;SDS011;2020;48.682;9.024;2022-12-07T03:20:36;7.40;;;6.70;;
4011;SDS011;2020;48.682;9.024;2022-12-07T03:23:05;8.53;;;7.37;;
4011;SDS011;2020;48.682;9.024;2022-12-07T03:25:34;10.23;;;8.20;;
4011;SDS011;2020;48.682;9.024;2022-12-07T03:28:04;8.17;;;7.37;;
4011;SDS011;2020;48.682;9.024;2022-12-07T03:30:39;7.20;;;6.60;;
4011;SDS011;2020;48.682;9.024;2022-12-07T03:33:13;11.53;;;7.93;;
4011;SDS011;2020;48.682;9.024;2022-12-07T03:35:48;9.53;;;8.03;;
4011;SDS011;2020;48.682;9.024;2022-12-07T03:38:23;11.00;;;7.80;;
4011;SDS011;2020;48.682;9.024;2022-12-07T03:41:06;12.03;;;8.83;;
4011;SDS011;2020;48.682;9.024;2022-12-07T03:43:54;8.10;;;7.00;;
4011;SDS011;2020;48.682;9.024;2022-12-07T03:46:24;10.60;;;8.10;;
4011;SDS011;2020;48.682;9.024;2022-12-07T03:55:02;12.20;;;8.53;;
4011;SDS011;2020;48.682;9.024;2022-12-07T03:57:50;7.70;;;7.00;;
4011;SDS011;2020;48.682;9.024;2022-12-07T04:00:19;10.93;;;7.87;;
4011;SDS011;2020;48.682;9.024;2022-12-07T04:02:44;8.73;;;7.80;;
4011;SDS011;2020;48.682;9.024;2022-12-07T04:05:10;9.80;;;7.03;;
4011;SDS011;2020;48.682;9.024;2022-12-07T04:07:36;12.07;;;9.23;;
4011;SDS011;2020;48.682;9.024;2022-12-07T04:10:01;11.10;;;8.43;;
4011;SDS011;2020;48.682;9.024;2022-12-07T04:12:28;8.37;;;7.53;;
4011;SDS011;2020;48.682;9.024;2022-12-07T04:14:53;8.80;;;7.90;;
4011;SDS011;2020;48.682;9.024;2022-12-07T04:17:18;9.27;;;8.37;;
4011;SDS011;2020;48.682;9.024;2022-12-07T04:19:43;9.60;;;7.60;;
4011;SDS011;2020;48.682;9.024;2022-12-07T04:22:09;8.80;;;7.90;;
4011;SDS011;2020;48.682;9.024;2022-12-07T04:24:35;11.73;;;8.87;;
4011;SDS011;2020;48.682;9.024;2022-12-07T04:27:00;8.63;;;7.73;;
4011;SDS011;2020;48.682;9.024;2022-12-07T04:29:26;8.90;;;7.70;;
4011;SDS011;2020;48.682;9.024;2022-12-07T04:31:51;8.40;;;6.77;;
4011;SDS011;2020;48.682;9.024;2022-12-07T04:34:17;9.70;;;8.73;;
4011;SDS011;2020;48.682;9.024;2022-12-07T04:36:43;7.73;;;7.03;;
4011;SDS011;2020;48.682;9.024;2022-12-07T04:39:14;8.00;;;7.20;;
4011;SDS011;2020;48.682;9.024;2022-12-07T04:41:44;9.97;;;9.00;;
4011;SDS011;2020;48.682;9.024;2022-12-07T04:44:09;9.30;;;7.73;;
4011;SDS011;2020;48.682;9.024;2022-12-07T04:46:36;8.77;;;7.37;;
4011;SDS011;2020;48.682;9.024;2022-12-07T04:49:01;8.50;;;6.97;;
4011;SDS011;2020;48.682;9.024;2022-12-07T04:51:27;7.37;;;6.30;;
4011;SDS011;2020;48.682;9.024;2022-12-07T04:53:54;9.10;;;8.17;;
4011;SDS011;2020;48.682;9.024;2022-12-07T04:56:21;9.30;;;7.23;;
4011;SDS011;2020;48.682;9.024;2022-12-07T04:58:47;6.73;;;6.13;;
4011;SDS011;2020;48.682;9.024;2022-12-07T05:01:13;6.87;;;6.17;;
4011;SDS011;2020;48.682;9.024;2022-12-07T05:03:39;7.37;;;6.23;;
4011;SDS011;2020;48.682;9.024;2022-12-07T05:06:04;7.10;;;6.40;;
4011;SDS011;2020;48.682;9.024;2022-12-07T05:08:31;7.13;;;6.43;;
4011;SDS011;2020;48.682;9.024;2022-12-07T05:10:58;7.40;;;6.13;;
4011;SDS011;2020;48.682;9.024;2022-12-07T05:13:23;6.50;;;5.90;;
4011;SDS011;2020;48.682;9.024;2022-12-07T05:15:49;8.73;;;7.93;;
4011;SDS011;2020;48.682;9.024;2022-12-07T05:18:14;8.60;;;7.70;;
4011;SDS011;2020;48.682;9.024;2022-12-07T05:20:40;8.67;;;7.77;;
4011;SDS011;2020;48.682;9.024;2022-12-07T05:23:06;6.13;;;5.63;;
4011;SDS011;2020;48.682;9.024;2022-12-07T05:25:31;8.10;;;7.30;;
4011;SDS011;2020;48.682;9.024;2022-12-07T05:27:57;9.30;;;6.03;;
4011;SDS011;2020;48.682;9.024;2022-12-07T05:30:23;8.87;;;7.00;;
4011;SDS011;2020;48.682;9.024;2022-12-07T05:32:49;8.50;;;7.53;;
4011;SDS011;2020;48.682;9.024;2022-12-07T05:35:15;6.90;;;6.30;;
4011;SDS011;2020;48.682;9.024;2022-12-07T05:37:40;6.43;;;5.80;;
4011;SDS011;2020;48.682;9.024;2022-12-07T05:40:05;7.03;;;6.33;;
4011;SDS011;2020;48.682;9.024;2022-12-07T05:42:32;6.87;;;5.40;;
4011;SDS011;2020;48.682;9.024;2022-12-07T05:44:57;7.70;;;6.90;;
4011;SDS011;2020;48.682;9.024;2022-12-07T05:47:22;7.80;;;7.00;;
4011;SDS011;2020;48.682;9.024;2022-12-07T05:49:47;5.03;;;4.57;;
4011;SDS011;2020;48.682;9.024;2022-12-07T05:52:13;6.50;;;5.97;;
4011;SDS011;2020;48.682;9.024;2022-12-07T05:54:38;6.30;;;5.73;;
4011;SDS011;2020;48.682;9.024;2022-12-07T05:57:04;5.87;;;5.30;;
4011;SDS011;2020;48.682;9.024;2022-12-07T05:59:29;5.27;;;4.93;;
4011;SDS011;2020;48.682;9.024;2022-12-07T06:01:58;7.10;;;6.30;;
4011;SDS011;2020;48.682;9.024;2022-12-07T06:04:27;6.90;;;5.97;;
4011;SDS011;2020;48.682;9.024;2022-12-07T06:06:54;6.43;;;6.03;;
4011;SDS011;2020;48.682;9.024;2022-12-07T06:09:20;7.00;;;6.00;;
4011;SDS011;2020;48.682;9.024;2022-12-07T06:11:47;7.17;;;6.33;;
4011;SDS011;2020;48.682;9.024;2022-12-07T06:14:31;6.30;;;5.70;;
4011;SDS011;2020;48.682;9.024;2022-12-07T06:16:56;7.10;;;6.40;;
4011;SDS011;2020;48.682;9.024;2022-12-07T06:19:21;7.73;;;6.93;;
4011;SDS011;2020;48.682;9.024;2022-12-07T06:21:47;9.87;;;8.07;;
4011;SDS011;2020;48.682;9.024;2022-12-07T06:24:12;6.70;;;6.10;;
4011;SDS011;2020;48.682;9.024;2022-12-07T06:26:38;7.17;;;6.50;;
4011;SDS011;2020;48.682;9.024;2022-12-07T06:29:05;8.60;;;7.70;;
4011;SDS011;2020;48.682;9.024;2022-12-07T06:31:30;9.10;;;6.77;;
4011;SDS011;2020;48.682;9.024;2022-12-07T06:33:59;9.53;;;7.50;;
4011;SDS011;2020;48.682;9.024;2022-12-07T06:36:25;9.47;;;6.97;;
4011;SDS011;2020;48.682;9.024;2022-12-07T06:38:51;8.23;;;7.30;;
4011;SDS011;2020;48.682;9.024;2022-12-07T06:41:16;8.30;;;7.30;;
4011;SDS011;2020;48.682;9.024;2022-12-07T06:43:41;8.20;;;6.80;;
4011;SDS011;2020;48.682;9.024;2022-12-07T06:46:07;7.80;;;6.87;;
4011;SDS011;2020;48.682;9.024;2022-12-07T06:48:32;11.47;;;7.70;;
4011;SDS011;2020;48.682;9.024;2022-12-07T06:50:58;8.93;;;6.90;;
4011;SDS011;2020;48.682;9.024;2022-12-07T06:53:23;10.50;;;7.43;;
4011;SDS011;2020;48.682;9.024;2022-12-07T06:55:48;13.50;;;7.40;;
4011;SDS011;2020;48.682;9.024;2022-12-07T06:58:14;9.23;;;6.67;;
4011;SDS011;2020;48.682;9.024;2022-12-07T07:00:39;7.97;;;7.17;;
4011;SDS011;2020;48.682;9.024;2022-12-07T07:03:04;9.40;;;7.10;;
4011;SDS011;2020;48.682;9.024;2022-12-07T07:05:30;13.13;;;7.80;;
4011;SDS011;2020;48.682;9.024;2022-12-07T07:07:55;9.13;;;8.17;;
4011;SDS011;2020;48.682;9.024;2022-12-07T07:10:20;9.60;;;7.27;;
4011;SDS011;2020;48.682;9.024;2022-12-07T07:12:45;9.33;;;8.27;;
4011;SDS011;2020;48.682;9.024;2022-12-07T07:15:11;8.50;;;6.93;;
4011;SDS011;2020;48.682;9.024;2022-12-07T07:17:37;8.23;;;7.40;;
4011;SDS011;2020;48.682;9.024;2022-12-07T07:20:02;12.00;;;7.93;;
4011;SDS011;2020;48.682;9.024;2022-12-07T07:22:28;8.50;;;7.60;;
4011;SDS011;2020;48.682;9.024;2022-12-07T07:24:53;7.27;;;6.67;;
4011;SDS011;2020;48.682;9.024;2022-12-07T07:27:18;8.70;;;7.80;;
4011;SDS011;2020;48.682;9.024;2022-12-07T07:29:43;8.23;;;7.40;;
4011;SDS011;2020;48.682;9.024;2022-12-07T07:32:09;10.20;;;8.17;;
4011;SDS011;2020;48.682;9.024;2022-12-07T07:34:34;8.17;;;7.30;;
4011;SDS011;2020;48.682;9.024;2022-12-07T07:36:59;7.53;;;6.80;;
4011;SDS011;2020;48.682;9.024;2022-12-07T07:39:25;7.37;;;6.57;;
4011;SDS011;2020;48.682;9.024;2022-12-07T07:41:50;8.70;;;5.97;;
4011;SDS011;2020;48.682;9.024;2022-12-07T07:44:15;6.47;;;5.50;;
4011;SDS011;2020;48.682;9.024;2022-12-07T07:46:41;8.50;;;6.60;;
4011;SDS011;2020;48.682;9.024;2022-12-07T07:49:06;6.70;;;6.00;;
4011;SDS011;2020;48.682;9.024;2022-12-07T07:51:31;5.83;;;5.37;;
4011;SDS011;2020;48.682;9.024;2022-12-07T07:53:57;7.50;;;6.73;;
4011;SDS011;2020;48.682;9.024;2022-12-07T07:56:22;6.87;;;6.30;;
4011;SDS011;2020;48.682;9.024;2022-12-07T07:58:47;6.40;;;5.80;;
4011;SDS011;2020;48.682;9.024;2022-12-07T08:01:16;6.17;;;5.57;;
4011;SDS011;2020;48.682;9.024;2022-12-07T08:03:44;9.67;;;6.20;;
4011;SDS011;2020;48.682;9.024;2022-12-07T08:06:09;7.93;;;6.50;;
4011;SDS011;2020;48.682;9.024;2022-12-07T08:08:34;7.40;;;6.13;;
4011;SDS011;2020;48.682;9.024;2022-12-07T08:11:00;8.50;;;6.97;;
4011;SDS011;2020;48.682;9.024;2022-12-07T08:13:26;6.43;;;5.93;;
4011;SDS011;2020;48.682;9.024;2022-12-07T08:15:51;5.90;;;5.10;;
4011;SDS011;2020;48.682;9.024;2022-12-07T08:18:16;6.03;;;5.53;;
4011;SDS011;2020;48.682;9.024;2022-12-07T08:20:42;7.13;;;6.53;;
4011;SDS011;2020;48.682;9.024;2022-12-07T08:23:07;7.93;;;6.30;;
4011;SDS011;2020;48.682;9.024;2022-12-07T08:25:34;6.30;;;5.80;;
4011;SDS011;2020;48.682;9.024;2022-12-07T08:27:59;5.60;;;5.20;;
4011;SDS011;2020;48.682;9.024;2022-12-07T08:30:25;6.83;;;5.97;;
4011;SDS011;2020;48.682;9.024;2022-12-07T08:32:51;6.03;;;5.30;;
4011;SDS011;2020;48.682;9.024;2022-12-07T08:35:16;6.83;;;5.93;;
4011;SDS011;2020;48.682;9.024;2022-12-07T08:37:41;7.47;;;6.03;;
4011;SDS011;2020;48.682;9.024;2022-12-07T08:40:08;8.13;;;4.20;;
4011;SDS011;2020;48.682;9.024;2022-12-07T08:42:34;7.33;;;5.80;;
4011;SDS011;2020;48.682;9.024;2022-12-07T08:45:05;7.90;;;6.30;;
4011;SDS011;2020;48.682;9.024;2022-12-07T08:47:33;8.13;;;5.20;;
4011;SDS011;2020;48.682;9.024;2022-12-07T08:50:01;5.83;;;5.33;;
4011;SDS011;2020;48.682;9.024;2022-12-07T08:52:29;5.93;;;5.43;;
4011;SDS011;2020;48.682;9.024;2022-12-07T08:54:55;5.97;;;5.33;;
4011;SDS011;2020;48.682;9.024;2022-12-07T08:57:21;6.37;;;5.70;;
4011;SDS011;2020;48.682;9.024;2022-12-07T08:59:46;5.97;;;5.57;;
4011;SDS011;2020;48.682;9.024;2022-12-07T09:02:11;7.93;;;5.80;;
4011;SDS011;2020;48.682;9.024;2022-12-07T09:04:37;5.43;;;4.93;;
4011;SDS011;2020;48.682;9.024;2022-12-07T09:07:02;4.80;;;4.47;;
4011;SDS011;2020;48.682;9.024;2022-12-07T09:09:28;6.00;;;4.80;;
4011;SDS011;2020;48.682;9.024;2022-12-07T09:11:54;6.70;;;6.10;;
4011;SDS011;2020;48.682;9.024;2022-12-07T09:14:19;5.00;;;4.30;;
4011;SDS011;2020;48.682;9.024;2022-12-07T09:16:44;12.40;;;4.60;;
4011;SDS011;2020;48.682;9.024;2022-12-07T09:19:10;4.63;;;4.23;;
4011;SDS011;2020;48.682;9.024;2022-12-07T09:21:35;5.70;;;5.20;;
4011;SDS011;2020;48.682;9.024;2022-12-07T09:24:00;5.43;;;5.07;;
4011;SDS011;2020;48.682;9.024;2022-12-07T09:26:26;5.40;;;5.00;;
4011;SDS011;2020;48.682;9.024;2022-12-07T09:28:51;5.33;;;4.60;;
4011;SDS011;2020;48.682;9.024;2022-12-07T09:31:16;8.03;;;5.80;;
4011;SDS011;2020;48.682;9.024;2022-12-07T09:33:42;6.97;;;5.67;;
4011;SDS011;2020;48.682;9.024;2022-12-07T09:36:07;4.90;;;4.57;;
4011;SDS011;2020;48.682;9.024;2022-12-07T09:38:33;5.07;;;4.63;;
4011;SDS011;2020;48.682;9.024;2022-12-07T09:41:03;5.13;;;4.70;;
4011;SDS011;2020;48.682;9.024;2022-12-07T09:43:30;4.97;;;4.40;;
4011;SDS011;2020;48.682;9.024;2022-12-07T09:45:56;4.77;;;4.43;;
4011;SDS011;2020;48.682;9.024;2022-12-07T09:48:43;4.90;;;4.50;;
4011;SDS011;2020;48.682;9.024;2022-12-07T09:51:26;4.00;;;3.70;;
4011;SDS011;2020;48.682;9.024;2022-12-07T09:53:52;4.77;;;4.37;;
4011;SDS011;2020;48.682;9.024;2022-12-07T09:56:20;4.53;;;4.10;;
4011;SDS011;2020;48.682;9.024;2022-12-07T09:58:46;5.87;;;5.37;;
4011;SDS011;2020;48.682;9.024;2022-12-07T10:03:41;5.83;;;5.23;;
4011;SDS011;2020;48.682;9.024;2022-12-07T10:06:13;4.30;;;4.00;;
4011;SDS011;2020;48.682;9.024;2022-12-07T10:08:39;6.20;;;5.60;;
4011;SDS011;2020;48.682;9.024;2022-12-07T10:11:06;5.20;;;4.80;;
4011;SDS011;2020;48.682;9.024;2022-12-07T10:13:39;5.90;;;4.60;;
4011;SDS011;2020;48.682;9.024;2022-12-07T10:16:20;5.87;;;5.13;;
4011;SDS011;2020;48.682;9.024;2022-12-07T10:22:09;10.20;;;7.20;;
4011;SDS011;2020;48.682;9.024;2022-12-07T10:24:38;9.10;;;6.80;;
4011;SDS011;2020;48.682;9.024;2022-12-07T10:27:15;9.90;;;6.67;;
4011;SDS011;2020;48.682;9.024;2022-12-07T10:29:47;5.90;;;5.33;;
4011;SDS011;2020;48.682;9.024;2022-12-07T10:34:40;5.50;;;5.07;;
4011;SDS011;2020;48.682;9.024;2022-12-07T10:37:16;5.50;;;4.03;;
4011;SDS011;2020;48.682;9.024;2022-12-07T10:39:53;4.97;;;4.60;;
4011;SDS011;2020;48.682;9.024;2022-12-07T10:42:22;5.60;;;4.30;;
4011;SDS011;2020;48.682;9.024;2022-12-07T10:44:49;4.77;;;4.33;;
4011;SDS011;2020;48.682;9.024;2022-12-07T10:52:58;6.27;;;4.37;;
4011;SDS011;2020;48.682;9.024;2022-12-07T10:58:36;5.80;;;4.57;;
4011;SDS011;2020;48.682;9.024;2022-12-07T11:01:30;4.30;;;3.93;;
4011;SDS011;2020;48.682;9.024;2022-12-07T11:15:04;4.67;;;4.30;;
4011;SDS011;2020;48.682;9.024;2022-12-07T11:18:09;3.80;;;3.47;;
4011;SDS011;2020;48.682;9.024;2022-12-07T11:23:56;4.07;;;3.87;;
4011;SDS011;2020;48.682;9.024;2022-12-07T11:32:13;4.37;;;4.07;;
4011;SDS011;2020;48.682;9.024;2022-12-07T11:37:18;4.80;;;4.40;;
4011;SDS011;2020;48.682;9.024;2022-12-07T11:39:50;4.00;;;3.80;;
4011;SDS011;2020;48.682;9.024;2022-12-07T11:42:21;5.20;;;4.60;;
4011;SDS011;2020;48.682;9.024;2022-12-07T11:44:51;4.57;;;4.00;;
4011;SDS011;2020;48.682;9.024;2022-12-07T11:47:22;3.83;;;3.53;;
4011;SDS011;2020;48.682;9.024;2022-12-07T11:55:41;6.73;;;4.83;;
4011;SDS011;2020;48.682;9.024;2022-12-07T12:01:04;5.40;;;4.20;;
4011;SDS011;2020;48.682;9.024;2022-12-07T12:03:51;4.10;;;3.70;;
4011;SDS011;2020;48.682;9.024;2022-12-07T12:06:18;4.47;;;4.17;;
4011;SDS011;2020;48.682;9.024;2022-12-07T12:08:46;5.50;;;3.70;;
4011;SDS011;2020;48.682;9.024;2022-12-07T12:14:14;4.30;;;4.00;;
4011;SDS011;2020;48.682;9.024;2022-12-07T12:20:22;5.33;;;3.93;;
4011;SDS011;2020;48.682;9.024;2022-12-07T12:22:36;4.20;;;3.87;;
4011;SDS011;2020;48.682;9.024;2022-12-07T12:25:05;4.07;;;3.87;;
4011;SDS011;2020;48.682;9.024;2022-12-07T12:27:36;5.37;;;4.87;;
4011;SDS011;2020;48.682;9.024;2022-12-07T12:30:06;4.20;;;3.80;;
4011;SDS011;2020;48.682;9.024;2022-12-07T12:32:49;3.97;;;3.57;;
4011;SDS011;2020;48.682;9.024;2022-12-07T12:37:46;4.47;;;4.17;;
4011;SDS011;2020;48.682;9.024;2022-12-07T12:42:43;4.30;;;4.10;;
4011;SDS011;2020;48.682;9.024;2022-12-07T12:45:24;3.73;;;3.43;;
4011;SDS011;2020;48.682;9.024;2022-12-07T12:48:00;3.77;;;3.50;;
4011;SDS011;2020;48.682;9.024;2022-12-07T12:50:33;3.27;;;3.07;;
4011;SDS011;2020;48.682;9.024;2022-12-07T12:53:02;3.77;;;3.57;;
4011;SDS011;2020;48.682;9.024;2022-12-07T12:55:52;3.50;;;3.20;;
4011;SDS011;2020;48.682;9.024;2022-12-07T13:00:47;2.73;;;2.63;;
4011;SDS011;2020;48.682;9.024;2022-12-07T13:03:33;2.90;;;2.70;;
4011;SDS011;2020;48.682;9.024;2022-12-07T13:08:44;2.43;;;2.33;;
4011;SDS011;2020;48.682;9.024;2022-12-07T13:11:20;8.90;;;2.43;;
4011;SDS011;2020;48.682;9.024;2022-12-07T13:14:34;2.93;;;2.47;;
4011;SDS011;2020;48.682;9.024;2022-12-07T13:16:58;2.57;;;2.47;;
4011;SDS011;2020;48.682;9.024;2022-12-07T13:19:48;2.77;;;2.67;;
4011;SDS011;2020;48.682;9.024;2022-12-07T13:27:37;2.57;;;2.47;;
4011;SDS011;2020;48.682;9.024;2022-12-07T13:30:15;2.87;;;2.77;;
4011;SDS011;2020;48.682;9.024;2022-12-07T13:32:42;2.80;;;2.70;;
4011;SDS011;2020;48.682;9.024;2022-12-07T13:37:57;3.40;;;3.20;;
4011;SDS011;2020;48.682;9.024;2022-12-07T13:40:23;2.80;;;2.60;;
4011;SDS011;2020;48.682;9.024;2022-12-07T13:42:56;2.90;;;2.80;;
4011;SDS011;2020;48.682;9.024;2022-12-07T13:45:30;3.47;;;3.17;;
4011;SDS011;2020;48.682;9.024;2022-12-07T13:48:16;4.70;;;3.40;;
4011;SDS011;2020;48.682;9.024;2022-12-07T13:50:53;3.20;;;3.10;;
4011;SDS011;2020;48.682;9.024;2022-12-07T13:53:20;4.83;;;3.13;;
4011;SDS011;2020;48.682;9.024;2022-12-07T13:55:46;3.60;;;3.30;;
4011;SDS011;2020;48.682;9.024;2022-12-07T13:58:12;3.63;;;3.43;;
4011;SDS011;2020;48.682;9.024;2022-12-07T14:00:37;2.97;;;2.77;;
4011;SDS011;2020;48.682;9.024;2022-12-07T14:05:37;3.57;;;3.27;;
4011;SDS011;2020;48.682;9.024;2022-12-07T14:08:04;3.33;;;2.73;;
4011;SDS011;2020;48.682;9.024;2022-12-07T14:12:58;3.53;;;3.27;;
4011;SDS011;2020;48.682;9.024;2022-12-07T14:15:27;5.40;;;3.80;;
4011;SDS011;2020;48.682;9.024;2022-12-07T14:17:55;4.27;;;3.30;;
4011;SDS011;2020;48.682;9.024;2022-12-07T14:20:28;4.03;;;3.77;;
4011;SDS011;2020;48.682;9.024;2022-12-07T14:23:01;4.20;;;4.00;;
4011;SDS011;2020;48.682;9.024;2022-12-07T14:25:34;4.43;;;3.33;;
4011;SDS011;2020;48.682;9.024;2022-12-07T14:28:10;3.37;;;3.07;;
4011;SDS011;2020;48.682;9.024;2022-12-07T14:30:58;5.23;;;4.10;;
4011;SDS011;2020;48.682;9.024;2022-12-07T14:33:23;7.50;;;4.10;;
4011;SDS011;2020;48.682;9.024;2022-12-07T14:35:50;5.13;;;4.03;;
4011;SDS011;2020;48.682;9.024;2022-12-07T14:38:19;3.60;;;3.20;;
4011;SDS011;2020;48.682;9.024;2022-12-07T14:40:45;6.60;;;3.53;;
4011;SDS011;2020;48.682;9.024;2022-12-07T14:43:14;4.20;;;3.80;;
4011;SDS011;2020;48.682;9.024;2022-12-07T14:45:40;3.20;;;3.00;;
4011;SDS011;2020;48.682;9.024;2022-12-07T14:48:13;4.53;;;4.20;;
4011;SDS011;2020;48.682;9.024;2022-12-07T14:50:49;6.83;;;4.23;;
4011;SDS011;2020;48.682;9.024;2022-12-07T14:53:18;4.10;;;3.73;;
4011;SDS011;2020;48.682;9.024;2022-12-07T14:55:52;3.57;;;3.30;;
4011;SDS011;2020;48.682;9.024;2022-12-07T14:58:18;3.77;;;3.57;;
4011;SDS011;2020;48.682;9.024;2022-12-07T15:00:43;3.40;;;3.10;;
4011;SDS011;2020;48.682;9.024;2022-12-07T15:03:08;3.37;;;3.17;;
4011;SDS011;2020;48.682;9.024;2022-12-07T15:05:34;3.77;;;3.47;;
4011;SDS011;2020;48.682;9.024;2022-12-07T15:08:00;4.60;;;4.10;;
4011;SDS011;2020;48.682;9.024;2022-12-07T15:10:27;4.03;;;3.73;;
4011;SDS011;2020;48.682;9.024;2022-12-07T15:12:56;3.27;;;3.10;;
4011;SDS011;2020;48.682;9.024;2022-12-07T15:15:42;5.07;;;4.60;;
4011;SDS011;2020;48.682;9.024;2022-12-07T15:18:07;4.30;;;3.90;;
4011;SDS011;2020;48.682;9.024;2022-12-07T15:20:33;4.50;;;4.20;;
4011;SDS011;2020;48.682;9.024;2022-12-07T15:22:58;4.23;;;3.93;;
4011;SDS011;2020;48.682;9.024;2022-12-07T15:25:23;4.43;;;3.77;;
4011;SDS011;2020;48.682;9.024;2022-12-07T15:27:49;7.00;;;5.77;;
4011;SDS011;2020;48.682;9.024;2022-12-07T15:30:14;3.80;;;3.13;;
4011;SDS011;2020;48.682;9.024;2022-12-07T15:32:40;4.30;;;4.00;;
4011;SDS011;2020;48.682;9.024;2022-12-07T15:35:05;5.67;;;4.40;;
4011;SDS011;2020;48.682;9.024;2022-12-07T15:37:31;4.60;;;4.30;;
4011;SDS011;2020;48.682;9.024;2022-12-07T15:39:56;4.67;;;4.30;;
4011;SDS011;2020;48.682;9.024;2022-12-07T15:42:21;5.33;;;4.90;;
4011;SDS011;2020;48.682;9.024;2022-12-07T15:44:46;6.03;;;5.43;;
4011;SDS011;2020;48.682;9.024;2022-12-07T15:47:30;6.67;;;6.00;;
4011;SDS011;2020;48.682;9.024;2022-12-07T15:50:01;7.90;;;6.50;;
4011;SDS011;2020;48.682;9.024;2022-12-07T15:52:31;6.90;;;5.90;;
4011;SDS011;2020;48.682;9.024;2022-12-07T15:54:56;7.90;;;6.20;;
4011;SDS011;2020;48.682;9.024;2022-12-07T15:57:21;7.90;;;7.10;;
4011;SDS011;2020;48.682;9.024;2022-12-07T15:59:47;9.03;;;7.17;;
4011;SDS011;2020;48.682;9.024;2022-12-07T16:02:12;10.50;;;7.27;;
4011;SDS011;2020;48.682;9.024;2022-12-07T16:04:38;7.57;;;6.83;;
4011;SDS011;2020;48.682;9.024;2022-12-07T16:07:03;7.80;;;6.77;;
4011;SDS011;2020;48.682;9.024;2022-12-07T16:09:28;9.77;;;7.33;;
4011;SDS011;2020;48.682;9.024;2022-12-07T16:11:54;7.87;;;7.07;;
4011;SDS011;2020;48.682;9.024;2022-12-07T16:14:20;6.70;;;5.70;;
4011;SDS011;2020;48.682;9.024;2022-12-07T16:16:46;6.67;;;6.00;;
4011;SDS011;2020;48.682;9.024;2022-12-07T16:19:11;6.90;;;5.50;;
4011;SDS011;2020;48.682;9.024;2022-12-07T16:21:37;10.03;;;6.77;;
4011;SDS011;2020;48.682;9.024;2022-12-07T16:24:02;7.47;;;6.73;;
4011;SDS011;2020;48.682;9.024;2022-12-07T16:26:28;9.07;;;6.73;;
4011;SDS011;2020;48.682;9.024;2022-12-07T16:28:53;8.70;;;6.80;;
4011;SDS011;2020;48.682;9.024;2022-12-07T16:31:21;7.20;;;6.50;;
4011;SDS011;2020;48.682;9.024;2022-12-07T16:33:48;6.67;;;6.07;;
4011;SDS011;2020;48.682;9.024;2022-12-07T16:36:14;6.90;;;6.30;;
4011;SDS011;2020;48.682;9.024;2022-12-07T16:38:41;9.23;;;6.27;;
4011;SDS011;2020;48.682;9.024;2022-12-07T16:41:06;9.47;;;6.77;;
4011;SDS011;2020;48.682;9.024;2022-12-07T16:43:32;9.37;;;6.70;;
4011;SDS011;2020;48.682;9.024;2022-12-07T16:45:58;7.63;;;6.33;;
4011;SDS011;2020;48.682;9.024;2022-12-07T16:48:23;8.63;;;7.73;;
4011;SDS011;2020;48.682;9.024;2022-12-07T16:50:48;7.90;;;7.13;;
4011;SDS011;2020;48.682;9.024;2022-12-07T16:53:14;7.10;;;6.40;;
4011;SDS011;2020;48.682;9.024;2022-12-07T16:55:41;7.80;;;6.93;;
4011;SDS011;2020;48.682;9.024;2022-12-07T16:58:08;7.40;;;6.70;;
4011;SDS011;2020;48.682;9.024;2022-12-07T17:00:34;7.30;;;6.60;;
4011;SDS011;2020;48.682;9.024;2022-12-07T17:03:01;7.40;;;6.70;;
4011;SDS011;2020;48.682;9.024;2022-12-07T17:05:26;7.10;;;6.50;;
4011;SDS011;2020;48.682;9.024;2022-12-07T17:07:53;9.00;;;5.57;;
4011;SDS011;2020;48.682;9.024;2022-12-07T17:10:19;7.73;;;6.20;;
4011;SDS011;2020;48.682;9.024;2022-12-07T17:12:44;6.60;;;5.90;;
4011;SDS011;2020;48.682;9.024;2022-12-07T17:15:09;5.87;;;5.30;;